createdAt,value
2023-04-21T00:01:50.131Z,8.00
2023-04-21T00:04:18.020Z,8.00
2023-04-21T00:06:45.652Z,8.00
2023-04-21T00:09:12.573Z,8.00
2023-04-21T00:11:39.527Z,7.90
2023-04-21T00:14:06.496Z,8.00
2023-04-21T00:16:33.688Z,7.90
2023-04-21T00:19:00.960Z,7.90
2023-04-21T00:21:28.051Z,7.90
2023-04-21T00:23:54.990Z,7.90
2023-04-21T00:26:21.936Z,8.00
2023-04-21T00:28:48.822Z,8.00
2023-04-21T00:31:15.848Z,8.00
2023-04-21T00:33:42.812Z,8.00
2023-04-21T00:36:09.848Z,7.90
2023-04-21T00:38:36.763Z,8.00
2023-04-21T00:41:03.715Z,8.10
2023-04-21T00:43:30.864Z,8.10
2023-04-21T00:45:57.873Z,8.20
2023-04-21T00:48:24.693Z,8.20
2023-04-21T00:50:51.606Z,8.10
2023-04-21T00:53:19.442Z,8.20
2023-04-21T00:55:47.126Z,8.20
2023-04-21T00:58:14.100Z,8.20
2023-04-21T01:00:41.615Z,8.10
2023-04-21T01:03:08.832Z,8.20
2023-04-21T01:05:36.546Z,8.10
2023-04-21T01:08:03.483Z,8.10
2023-04-21T01:10:30.583Z,8.10
2023-04-21T01:12:57.566Z,8.10
2023-04-21T01:15:26.125Z,8.10
2023-04-21T01:17:54.148Z,8.00
2023-04-21T01:20:21.161Z,8.00
2023-04-21T01:22:49.955Z,8.10
2023-04-21T01:25:18.524Z,8.10
2023-04-21T01:27:45.531Z,8.00
2023-04-21T01:30:12.527Z,8.00
2023-04-21T01:32:39.511Z,8.00
2023-04-21T01:35:07.128Z,7.90
2023-04-21T01:37:34.467Z,8.00
2023-04-21T01:40:05.312Z,7.90
2023-04-21T01:42:33.295Z,7.90
2023-04-21T01:45:00.674Z,7.90
2023-04-21T01:47:27.571Z,7.80
2023-04-21T01:49:54.566Z,7.80
2023-04-21T01:52:21.643Z,7.80
2023-04-21T01:54:48.864Z,7.80
2023-04-21T01:57:16.962Z,7.90
2023-04-21T01:59:44.515Z,7.80
2023-04-21T02:02:11.668Z,7.90
2023-04-21T02:04:38.664Z,7.80
2023-04-21T02:07:05.616Z,7.70
2023-04-21T02:09:32.725Z,7.80
2023-04-21T02:12:00.345Z,7.80
2023-04-21T02:14:27.510Z,7.70
2023-04-21T02:16:56.134Z,7.80
2023-04-21T02:19:23.440Z,7.70
2023-04-21T02:21:50.476Z,7.80
2023-04-21T02:24:17.647Z,7.80
2023-04-21T02:26:44.533Z,7.90
2023-04-21T02:29:11.438Z,7.80
2023-04-21T02:31:54.205Z,7.90
2023-04-21T02:34:25.500Z,7.90
2023-04-21T02:36:52.453Z,7.80
2023-04-21T02:39:19.633Z,7.80
2023-04-21T02:41:46.872Z,7.80
2023-04-21T02:44:13.735Z,7.80
2023-04-21T02:46:43.568Z,7.70
2023-04-21T02:49:11.248Z,7.80
2023-04-21T02:51:38.136Z,7.80
2023-04-21T02:54:05.313Z,7.80
2023-04-21T02:56:34.734Z,7.80
2023-04-21T02:59:01.671Z,7.80
2023-04-21T03:01:28.558Z,7.80
2023-04-21T03:03:55.749Z,7.80
2023-04-21T03:06:22.770Z,7.80
2023-04-21T03:08:49.709Z,7.80
2023-04-21T03:11:16.631Z,7.80
2023-04-21T03:13:43.558Z,7.70
2023-04-21T03:16:10.448Z,7.60
2023-04-21T03:18:37.411Z,7.60
2023-04-21T03:21:04.323Z,7.60
2023-04-21T03:23:31.281Z,7.60
2023-04-21T03:25:58.140Z,7.70
2023-04-21T03:28:25.018Z,7.60
2023-04-21T03:30:52.005Z,7.50
2023-04-21T03:33:18.989Z,7.60
2023-04-21T03:35:46.001Z,7.70
2023-04-21T03:38:12.867Z,7.60
2023-04-21T03:40:39.762Z,7.60
2023-04-21T03:43:06.729Z,7.50
2023-04-21T03:45:36.054Z,7.50
2023-04-21T03:48:03.850Z,7.60
2023-04-21T03:50:30.941Z,7.60
2023-04-21T03:52:58.445Z,7.70
2023-04-21T03:55:25.308Z,7.70
2023-04-21T03:57:52.195Z,7.70
2023-04-21T04:00:19.265Z,7.80
2023-04-21T04:02:46.393Z,7.70
2023-04-21T04:05:13.643Z,7.70
2023-04-21T04:07:40.793Z,7.60
2023-04-21T04:10:07.823Z,7.60
2023-04-21T04:12:34.744Z,7.60
2023-04-21T04:15:01.752Z,7.60
2023-04-21T04:17:28.698Z,7.60
2023-04-21T04:19:55.650Z,7.60
2023-04-21T04:22:22.585Z,7.70
2023-04-21T04:24:49.529Z,7.60
2023-04-21T04:27:16.705Z,7.70
2023-04-21T04:29:44.024Z,7.60
2023-04-21T04:32:11.203Z,7.80
2023-04-21T04:34:38.712Z,7.80
2023-04-21T04:37:06.638Z,7.70
2023-04-21T04:39:33.692Z,7.70
2023-04-21T04:42:01.461Z,7.70
2023-04-21T04:44:28.473Z,7.60
2023-04-21T04:46:56.642Z,7.70
2023-04-21T04:49:24.248Z,7.60
2023-04-21T04:51:51.600Z,7.70
2023-04-21T04:54:19.315Z,7.80
2023-04-21T04:56:46.314Z,7.90
2023-04-21T04:59:13.291Z,7.90
2023-04-21T05:01:41.934Z,8.00
2023-04-21T05:04:09.267Z,7.90
2023-04-21T05:06:36.360Z,8.00
2023-04-21T05:09:04.984Z,8.00
2023-04-21T05:11:32.076Z,8.10
2023-04-21T05:13:59.403Z,8.20
2023-04-21T05:16:26.435Z,8.20
2023-04-21T05:18:54.279Z,8.30
2023-04-21T05:21:27.456Z,8.30
2023-04-21T05:23:58.965Z,8.40
2023-04-21T05:26:27.623Z,8.40
2023-04-21T05:28:58.901Z,8.40
2023-04-21T05:31:25.995Z,8.50
2023-04-21T05:33:53.229Z,8.60
2023-04-21T05:36:20.579Z,8.60
2023-04-21T05:38:47.686Z,8.60
2023-04-21T05:41:14.665Z,8.70
2023-04-21T05:43:41.639Z,8.80
2023-04-21T05:46:11.709Z,8.70
2023-04-21T05:48:38.743Z,8.80
2023-04-21T05:51:12.609Z,8.90
2023-04-21T05:53:40.066Z,8.90
2023-04-21T05:56:08.925Z,8.90
2023-04-21T05:58:36.377Z,9.00
2023-04-21T06:01:04.163Z,9.00
2023-04-21T06:03:31.987Z,9.10
2023-04-21T06:06:01.153Z,9.20
2023-04-21T06:08:28.135Z,9.30
2023-04-21T06:10:55.166Z,9.30
2023-04-21T06:13:22.314Z,9.40
2023-04-21T06:15:49.186Z,9.50
2023-04-21T06:18:17.020Z,9.60
2023-04-21T06:20:50.874Z,9.80
2023-04-21T06:23:17.974Z,10.40
2023-04-21T06:25:44.819Z,11.10
2023-04-21T06:28:11.936Z,11.60
2023-04-21T06:30:38.871Z,12.00
2023-04-21T06:33:06.842Z,12.40
2023-04-21T06:35:34.101Z,12.70
2023-04-21T06:38:01.113Z,12.60
2023-04-21T06:40:28.107Z,12.80
2023-04-21T06:42:55.068Z,13.30
2023-04-21T06:45:22.039Z,14.00
2023-04-21T06:47:49.152Z,14.50
2023-04-21T06:50:16.410Z,14.50
2023-04-21T06:52:43.307Z,14.40
2023-04-21T06:55:10.164Z,14.40
2023-04-21T06:57:37.445Z,14.40
2023-04-21T07:00:05.903Z,14.50
2023-04-21T07:02:33.039Z,15.00
2023-04-21T07:04:59.963Z,15.10
2023-04-21T07:07:26.885Z,15.30
2023-04-21T07:09:53.739Z,15.70
2023-04-21T07:12:20.733Z,16.10
2023-04-21T07:14:47.756Z,16.10
2023-04-21T07:17:14.686Z,16.30
2023-04-21T07:19:41.570Z,16.30
2023-04-21T07:22:08.637Z,16.70
2023-04-21T07:24:37.308Z,17.00
2023-04-21T07:27:04.393Z,16.50
2023-04-21T07:29:31.344Z,16.40
2023-04-21T07:31:58.642Z,16.80
2023-04-21T07:34:25.816Z,17.20
2023-04-21T07:36:53.096Z,17.40
2023-04-21T07:39:20.210Z,17.20
2023-04-21T07:41:47.188Z,16.80
2023-04-21T07:44:14.417Z,16.70
2023-04-21T07:46:41.592Z,17.10
2023-04-21T07:49:08.857Z,16.70
2023-04-21T07:51:35.808Z,16.70
2023-04-21T07:54:02.708Z,16.90
2023-04-21T07:56:29.600Z,16.90
2023-04-21T07:58:56.466Z,17.00
2023-04-21T08:01:23.818Z,17.00
2023-04-21T08:03:50.756Z,17.00
2023-04-21T08:06:17.924Z,16.60
2023-04-21T08:08:44.845Z,16.60
2023-04-21T08:11:11.695Z,16.90
2023-04-21T08:13:38.600Z,17.30
2023-04-21T08:16:05.822Z,17.50
2023-04-21T08:18:32.901Z,17.10
2023-04-21T08:20:59.867Z,17.70
2023-04-21T08:23:26.797Z,18.30
2023-04-21T08:25:53.677Z,18.10
2023-04-21T08:28:20.714Z,17.80
2023-04-21T08:30:47.650Z,17.50
2023-04-21T08:33:14.755Z,17.80
2023-04-21T08:35:55.030Z,18.20
2023-04-21T08:38:28.607Z,18.10
2023-04-21T08:40:58.838Z,18.10
2023-04-21T08:43:26.515Z,17.60
2023-04-21T08:45:56.510Z,17.50
2023-04-21T08:48:25.232Z,17.30
2023-04-21T08:50:53.824Z,17.50
2023-04-21T08:53:21.670Z,17.30
2023-04-21T08:56:07.500Z,17.40
2023-04-21T08:58:37.409Z,17.70
2023-04-21T09:01:04.695Z,17.70
2023-04-21T09:03:32.072Z,17.70
2023-04-21T09:06:08.221Z,17.60
2023-04-21T09:08:39.993Z,17.80
2023-04-21T09:11:07.047Z,18.30
2023-04-21T09:13:35.837Z,18.40
2023-04-21T09:16:18.259Z,18.00
2023-04-21T09:18:45.307Z,18.30
2023-04-21T09:21:17.304Z,18.70
2023-04-21T09:23:49.472Z,19.00
2023-04-21T09:26:22.916Z,19.00
2023-04-21T09:28:52.082Z,19.00
2023-04-21T09:31:20.151Z,19.10
2023-04-21T09:33:57.770Z,19.10
2023-04-21T09:36:29.317Z,18.80
2023-04-21T09:41:28.843Z,18.50
2023-04-21T09:43:55.784Z,18.90
2023-04-21T09:46:24.529Z,19.40
2023-04-21T09:48:52.699Z,19.70
2023-04-21T09:51:35.189Z,19.90
2023-04-21T09:56:54.225Z,20.20
2023-04-21T09:59:27.509Z,19.60
2023-04-21T10:01:57.927Z,19.10
2023-04-21T10:04:26.448Z,19.20
2023-04-21T10:06:54.613Z,19.20
2023-04-21T10:09:23.821Z,19.30
2023-04-21T10:11:53.050Z,19.80
2023-04-21T10:14:20.405Z,19.70
2023-04-21T10:16:57.154Z,19.60
2023-04-21T10:19:26.087Z,19.20
2023-04-21T10:21:57.583Z,19.30
2023-04-21T10:24:24.539Z,19.00
2023-04-21T10:26:54.026Z,19.70
2023-04-21T10:29:48.041Z,20.70
2023-04-21T10:32:43.152Z,20.50
2023-04-21T10:35:22.773Z,19.60
2023-04-21T10:37:52.068Z,18.40
2023-04-21T10:40:43.213Z,18.60
2023-04-21T10:43:45.895Z,19.20
2023-04-21T10:46:35.071Z,19.80
2023-04-21T10:49:21.952Z,19.90
2023-04-21T10:51:58.071Z,19.70
2023-04-21T10:54:42.160Z,20.20
2023-04-21T10:57:11.611Z,20.60
2023-04-21T10:59:39.120Z,20.40
2023-04-21T11:02:12.054Z,20.60
2023-04-21T11:04:47.844Z,20.60
2023-04-21T11:07:17.559Z,19.90
2023-04-21T11:09:46.093Z,20.20
2023-04-21T11:12:15.931Z,20.20
2023-04-21T11:14:43.978Z,20.50
2023-04-21T11:17:13.549Z,20.50
2023-04-21T11:19:40.748Z,20.40
2023-04-21T11:22:07.774Z,20.40
2023-04-21T11:24:34.698Z,19.90
2023-04-21T11:27:02.222Z,19.40
2023-04-21T11:29:29.832Z,19.20
2023-04-21T11:31:56.868Z,19.30
2023-04-21T11:34:25.454Z,19.20
2023-04-21T11:36:53.305Z,19.10
2023-04-21T11:39:22.469Z,19.40
2023-04-21T11:41:51.255Z,19.10
2023-04-21T11:44:38.180Z,19.20
2023-04-21T11:47:28.459Z,19.10
2023-04-21T11:49:58.121Z,19.30
2023-04-21T11:52:37.475Z,19.30
2023-04-21T11:55:05.871Z,19.40
2023-04-21T11:57:34.172Z,19.10
2023-04-21T12:00:06.728Z,19.30
2023-04-21T12:02:34.465Z,19.40
2023-04-21T12:05:10.081Z,19.40
2023-04-21T12:07:39.125Z,19.10
2023-04-21T12:10:14.030Z,19.10
2023-04-21T12:12:42.236Z,19.10
2023-04-21T12:15:11.150Z,19.10
2023-04-21T12:17:45.543Z,19.40
2023-04-21T12:20:15.416Z,19.10
2023-04-21T12:22:42.643Z,19.10
2023-04-21T12:25:09.639Z,19.00
2023-04-21T12:27:36.689Z,19.10
2023-04-21T12:30:04.167Z,18.90
2023-04-21T12:32:31.305Z,19.40
2023-04-21T12:34:58.327Z,19.20
2023-04-21T12:37:25.946Z,19.10
2023-04-21T12:39:52.870Z,19.10
2023-04-21T12:42:19.677Z,19.40
2023-04-21T12:44:46.875Z,19.30
2023-04-21T12:47:14.034Z,19.10
2023-04-21T12:49:41.700Z,19.20
2023-04-21T12:52:08.870Z,19.30
2023-04-21T12:54:36.016Z,19.30
2023-04-21T12:57:03.068Z,19.20
2023-04-21T12:59:30.305Z,18.90
2023-04-21T13:01:57.378Z,18.60
2023-04-21T13:04:24.944Z,18.50
2023-04-21T13:06:52.433Z,18.40
2023-04-21T13:09:19.338Z,18.50
2023-04-21T13:11:46.283Z,18.50
2023-04-21T13:14:13.660Z,18.80
2023-04-21T13:16:40.999Z,19.00
2023-04-21T13:19:07.934Z,19.00
2023-04-21T13:21:34.892Z,18.90
2023-04-21T13:24:02.867Z,18.80
2023-04-21T13:26:33.696Z,19.00
2023-04-21T13:29:01.366Z,18.70
2023-04-21T13:31:28.742Z,18.60
2023-04-21T13:33:56.463Z,18.40
2023-04-21T13:36:23.724Z,18.50
2023-04-21T13:38:51.173Z,18.70
2023-04-21T13:41:18.138Z,18.70
2023-04-21T13:43:45.012Z,18.70
2023-04-21T13:46:13.025Z,18.70
2023-04-21T13:48:40.447Z,18.50
2023-04-21T13:51:08.085Z,18.40
2023-04-21T13:53:35.070Z,18.40
2023-04-21T13:56:01.898Z,18.20
2023-04-21T13:58:30.754Z,18.10
2023-04-21T14:00:57.702Z,17.90
2023-04-21T14:03:24.686Z,18.00
2023-04-21T14:05:51.722Z,18.10
2023-04-21T14:08:18.800Z,18.10
2023-04-21T14:10:45.742Z,18.20
2023-04-21T14:13:23.115Z,18.50
2023-04-21T14:15:59.577Z,18.30
2023-04-21T14:18:26.461Z,18.00
2023-04-21T14:20:53.326Z,18.10
2023-04-21T14:23:20.324Z,18.00
2023-04-21T14:25:47.272Z,18.00
2023-04-21T14:28:14.576Z,17.90
2023-04-21T14:30:42.949Z,17.90
2023-04-21T14:33:10.042Z,17.90
2023-04-21T14:35:39.951Z,17.80
2023-04-21T14:38:07.041Z,17.90
2023-04-21T14:40:34.073Z,17.80
2023-04-21T14:43:01.015Z,17.50
2023-04-21T14:45:28.201Z,17.60
2023-04-21T14:47:55.509Z,17.60
2023-04-21T14:50:22.702Z,17.80
2023-04-21T14:52:49.845Z,17.80
2023-04-21T14:55:17.134Z,17.70
2023-04-21T14:57:44.110Z,17.60
2023-04-21T15:00:12.191Z,17.60
2023-04-21T15:02:42.208Z,17.50
2023-04-21T15:05:10.804Z,17.40
2023-04-21T15:07:40.496Z,17.40
2023-04-21T15:10:08.797Z,17.40
2023-04-21T15:12:36.662Z,17.20
2023-04-21T15:15:04.012Z,16.90
2023-04-21T15:17:30.849Z,16.90
2023-04-21T15:19:57.938Z,16.90
2023-04-21T15:22:25.162Z,17.00
2023-04-21T15:24:53.865Z,17.00
2023-04-21T15:27:21.868Z,17.00
2023-04-21T15:29:49.019Z,16.80
2023-04-21T15:32:15.966Z,16.80
2023-04-21T15:34:42.855Z,16.60
2023-04-21T15:37:09.702Z,16.40
2023-04-21T15:39:36.833Z,16.40
2023-04-21T15:42:05.080Z,16.40
2023-04-21T15:44:33.936Z,16.50
2023-04-21T15:47:01.009Z,16.40
2023-04-21T15:49:27.960Z,16.40
2023-04-21T15:51:56.762Z,16.60
2023-04-21T15:54:24.217Z,16.40
2023-04-21T15:56:51.372Z,16.40
2023-04-21T15:59:18.365Z,16.30
2023-04-21T16:01:45.291Z,16.00
2023-04-21T16:04:12.512Z,15.90
2023-04-21T16:06:39.621Z,15.90
2023-04-21T16:09:06.698Z,15.90
2023-04-21T16:11:34.335Z,15.90
2023-04-21T16:14:01.759Z,15.80
2023-04-21T16:16:28.711Z,15.80
2023-04-21T16:18:55.654Z,15.90
2023-04-21T16:21:22.613Z,15.90
2023-04-21T16:23:49.749Z,15.70
2023-04-21T16:26:16.679Z,15.60
2023-04-21T16:28:43.603Z,15.60
2023-04-21T16:31:10.525Z,15.50
2023-04-21T16:33:37.419Z,15.50
2023-04-21T16:36:04.455Z,15.50
2023-04-21T16:38:31.370Z,15.50
2023-04-21T16:40:58.246Z,15.50
2023-04-21T16:43:25.363Z,15.40
2023-04-21T16:45:52.269Z,15.30
2023-04-21T16:48:19.250Z,15.20
2023-04-21T16:50:46.181Z,15.00
2023-04-21T16:53:13.040Z,14.90
2023-04-21T16:55:40.003Z,14.90
2023-04-21T16:58:06.913Z,14.80
2023-04-21T17:00:33.890Z,14.80
2023-04-21T17:03:00.854Z,14.80
2023-04-21T17:05:27.862Z,14.70
2023-04-21T17:07:54.922Z,14.60
2023-04-21T17:10:22.124Z,14.60
2023-04-21T17:12:49.007Z,14.60
2023-04-21T17:15:16.264Z,14.60
2023-04-21T17:17:44.821Z,14.50
2023-04-21T17:20:13.996Z,14.30
2023-04-21T17:22:41.940Z,14.20
2023-04-21T17:25:09.626Z,14.20
2023-04-21T17:27:38.372Z,13.90
2023-04-21T17:30:06.091Z,13.80
2023-04-21T17:32:34.344Z,13.70
2023-04-21T17:35:01.677Z,13.60
2023-04-21T17:37:30.385Z,13.50
2023-04-21T17:39:59.800Z,13.40
2023-04-21T17:42:29.397Z,13.40
2023-04-21T17:44:56.314Z,13.40
2023-04-21T17:47:23.346Z,13.20
2023-04-21T17:49:50.255Z,13.10
2023-04-21T17:52:17.368Z,13.00
2023-04-21T17:54:44.359Z,13.00
2023-04-21T17:57:11.911Z,12.90
2023-04-21T17:59:39.557Z,12.90
2023-04-21T18:02:06.905Z,12.70
2023-04-21T18:04:34.529Z,12.60
2023-04-21T18:07:01.655Z,12.50
2023-04-21T18:09:28.525Z,12.50
2023-04-21T18:11:55.366Z,12.40
2023-04-21T18:14:22.969Z,12.40
2023-04-21T18:16:49.848Z,12.30
2023-04-21T18:19:18.316Z,12.30
2023-04-21T18:21:45.758Z,12.30
2023-04-21T18:24:12.723Z,12.10
2023-04-21T18:26:40.261Z,12.00
2023-04-21T18:29:07.634Z,11.90
2023-04-21T18:31:34.713Z,11.90
2023-04-21T18:34:01.734Z,11.80
2023-04-21T18:36:30.712Z,11.70
2023-04-21T18:38:59.452Z,11.60
2023-04-21T18:41:27.694Z,11.60
2023-04-21T18:43:54.885Z,11.50
2023-04-21T18:46:22.145Z,11.50
2023-04-21T18:48:49.278Z,11.40
2023-04-21T18:51:16.853Z,11.40
2023-04-21T18:53:46.144Z,11.30
2023-04-21T18:56:13.025Z,11.20
2023-04-21T18:58:39.909Z,11.20
2023-04-21T19:01:07.947Z,11.20
2023-04-21T19:03:35.253Z,11.20
2023-04-21T19:06:02.265Z,11.20
2023-04-21T19:08:41.413Z,11.10
2023-04-21T19:11:10.288Z,11.10
2023-04-21T19:13:37.627Z,11.10
2023-04-21T19:16:05.293Z,11.10
2023-04-21T19:18:36.059Z,11.00
2023-04-21T19:21:04.650Z,10.90
2023-04-21T19:23:31.920Z,11.00
2023-04-21T19:25:59.996Z,10.90
2023-04-21T19:28:26.905Z,10.90
2023-04-21T19:30:53.728Z,10.90
2023-04-21T19:33:20.696Z,10.80
2023-04-21T19:35:47.825Z,10.80
2023-04-21T19:38:15.098Z,10.70
2023-04-21T19:40:45.004Z,10.60
2023-04-21T19:43:12.805Z,10.60
2023-04-21T19:45:39.785Z,10.60
2023-04-21T19:48:07.569Z,10.70
2023-04-21T19:50:35.876Z,10.60
2023-04-21T19:53:03.716Z,10.70
2023-04-21T19:55:31.254Z,10.50
2023-04-21T19:57:58.116Z,10.50
2023-04-21T20:00:25.680Z,10.40
2023-04-21T20:02:53.041Z,10.40
2023-04-21T20:05:20.316Z,10.40
2023-04-21T20:07:47.253Z,10.30
2023-04-21T20:10:14.211Z,10.30
2023-04-21T20:12:41.303Z,10.20
2023-04-21T20:15:08.720Z,10.20
2023-04-21T20:17:35.717Z,10.10
2023-04-21T20:20:05.216Z,10.00
2023-04-21T20:22:32.301Z,10.00
2023-04-21T20:24:59.330Z,9.90
2023-04-21T20:27:30.066Z,9.90
2023-04-21T20:29:57.030Z,9.80
2023-04-21T20:32:24.052Z,9.80
2023-04-21T20:34:53.424Z,9.80
2023-04-21T20:37:20.615Z,9.80
2023-04-21T20:39:47.588Z,9.70
2023-04-21T20:42:14.892Z,9.70
2023-04-21T20:44:43.111Z,9.70
2023-04-21T20:47:11.229Z,9.60
2023-04-21T20:49:39.796Z,9.50
2023-04-21T20:52:07.121Z,9.40
2023-04-21T20:54:34.950Z,9.50
2023-04-21T20:57:02.341Z,9.50
2023-04-21T20:59:29.447Z,9.50
2023-04-21T21:01:56.454Z,9.60
2023-04-21T21:04:23.707Z,9.50
2023-04-21T21:06:50.868Z,9.50
2023-04-21T21:09:19.017Z,9.40
2023-04-21T21:11:46.198Z,9.30
2023-04-21T21:14:13.177Z,9.30
2023-04-21T21:16:40.456Z,9.20
2023-04-21T21:19:07.405Z,9.20
2023-04-21T21:21:34.359Z,9.20
2023-04-21T21:24:01.596Z,9.20
2023-04-21T21:26:29.262Z,9.10
2023-04-21T21:28:56.656Z,9.10
2023-04-21T21:31:23.661Z,9.10
2023-04-21T21:33:50.770Z,9.00
2023-04-21T21:36:17.778Z,9.10
2023-04-21T21:38:44.701Z,9.10
2023-04-21T21:41:12.361Z,9.10
2023-04-21T21:43:39.421Z,9.10
2023-04-21T21:46:06.536Z,9.10
2023-04-21T21:48:33.553Z,9.00
2023-04-21T21:51:00.654Z,9.00
2023-04-21T21:53:27.607Z,9.10
2023-04-21T21:55:54.542Z,9.10
2023-04-21T21:58:21.521Z,9.10
2023-04-21T22:00:51.843Z,9.00
2023-04-21T22:03:19.830Z,9.10
2023-04-21T22:05:47.381Z,9.10
2023-04-21T22:08:15.682Z,9.20
2023-04-21T22:10:46.096Z,9.30
2023-04-21T22:13:12.941Z,9.20
2023-04-21T22:15:39.988Z,9.20
2023-04-21T22:18:08.126Z,9.30
2023-04-21T22:20:35.743Z,9.20
2023-04-21T22:23:03.388Z,9.20
2023-04-21T22:25:30.693Z,9.20
2023-04-21T22:27:58.298Z,9.30
2023-04-21T22:30:25.792Z,9.20
2023-04-21T22:32:53.001Z,9.10
2023-04-21T22:35:20.048Z,9.10
2023-04-21T22:37:46.910Z,9.20
2023-04-21T22:40:14.118Z,9.10
2023-04-21T22:42:41.023Z,9.10
2023-04-21T22:45:08.560Z,9.00
2023-04-21T22:47:35.519Z,9.10
2023-04-21T22:50:02.654Z,9.20
2023-04-21T22:52:29.828Z,9.10
2023-04-21T22:54:56.685Z,9.00
2023-04-21T22:57:24.004Z,9.10
2023-04-21T22:59:50.809Z,9.20
2023-04-21T23:02:17.799Z,9.10
2023-04-21T23:04:44.800Z,9.10
2023-04-21T23:07:11.630Z,9.00
2023-04-21T23:09:39.241Z,8.90
2023-04-21T23:12:06.650Z,8.90
2023-04-21T23:14:33.750Z,8.80
2023-04-21T23:17:01.109Z,8.90
2023-04-21T23:19:28.097Z,9.00
2023-04-21T23:21:54.982Z,9.00
2023-04-21T23:24:21.880Z,8.90
2023-04-21T23:26:48.826Z,8.80
2023-04-21T23:29:16.118Z,8.90
2023-04-21T23:31:43.035Z,8.80
2023-04-21T23:34:09.958Z,8.80
2023-04-21T23:36:37.178Z,8.90
2023-04-21T23:39:04.262Z,8.90
2023-04-21T23:41:31.345Z,8.80
2023-04-21T23:43:58.199Z,8.90
2023-04-21T23:46:25.961Z,8.80
2023-04-21T23:48:52.868Z,8.80
2023-04-21T23:51:20.220Z,8.90
2023-04-21T23:53:47.267Z,8.80
2023-04-21T23:56:14.157Z,8.70
2023-04-21T23:58:41.100Z,8.60
